sensor_id;sensor_type;location;lat;lon;timestamp;pressure;altitude;pressure_sealevel;temperature;humidity
50226;BME280;36113;50.742;6.432;2024-03-02T00:00:42;97267.09;;;7.12;67.54
50226;BME280;36113;50.742;6.432;2024-03-02T00:03:07;97248.88;;;6.98;67.84
50226;BME280;36113;50.742;6.432;2024-03-02T00:05:34;97241.28;;;7.00;67.57
50226;BME280;36113;50.742;6.432;2024-03-02T00:08:00;97272.69;;;7.20;67.95
50226;BME280;36113;50.742;6.432;2024-03-02T00:10:29;97254.13;;;7.14;67.43
50226;BME280;36113;50.742;6.432;2024-03-02T00:13:00;97248.19;;;7.12;67.68
50226;BME280;36113;50.742;6.432;2024-03-02T00:18:34;97256.72;;;7.24;67.19
50226;BME280;36113;50.742;6.432;2024-03-02T00:20:58;97214.63;;;6.94;67.22
50226;BME280;36113;50.742;6.432;2024-03-02T00:23:28;97259.69;;;7.22;67.14
50226;BME280;36113;50.742;6.432;2024-03-02T00:25:55;97253.19;;;7.23;67.02
50226;BME280;36113;50.742;6.432;2024-03-02T00:28:23;97263.44;;;7.27;67.33
50226;BME280;36113;50.742;6.432;2024-03-02T00:30:56;97216.69;;;7.02;67.51
50226;BME280;36113;50.742;6.432;2024-03-02T00:33:24;97274.81;;;7.23;67.28
50226;BME280;36113;50.742;6.432;2024-03-02T00:35:51;97261.81;;;7.25;67.18
50226;BME280;36113;50.742;6.432;2024-03-02T00:38:16;97263.13;;;7.28;67.04
50226;BME280;36113;50.742;6.432;2024-03-02T00:40:42;97238.94;;;7.18;66.87
50226;BME280;36113;50.742;6.432;2024-03-02T00:46:10;97277.34;;;7.39;66.28
50226;BME280;36113;50.742;6.432;2024-03-02T00:48:36;97268.94;;;7.40;66.60
50226;BME280;36113;50.742;6.432;2024-03-02T00:51:02;97269.19;;;7.44;66.62
50226;BME280;36113;50.742;6.432;2024-03-02T00:53:31;97268.94;;;7.40;66.37
50226;BME280;36113;50.742;6.432;2024-03-02T00:56:01;97261.63;;;7.41;66.33
50226;BME280;36113;50.742;6.432;2024-03-02T00:58:26;97255.16;;;7.42;66.39
50226;BME280;36113;50.742;6.432;2024-03-02T01:00:51;97269.13;;;7.49;66.11
50226;BME280;36113;50.742;6.432;2024-03-02T01:03:17;97263.47;;;7.45;66.19
50226;BME280;36113;50.742;6.432;2024-03-02T01:05:42;97267.72;;;7.52;65.64
50226;BME280;36113;50.742;6.432;2024-03-02T01:08:09;97274.72;;;7.53;65.67
50226;BME280;36113;50.742;6.432;2024-03-02T01:10:34;97223.00;;;7.16;65.80
50226;BME280;36113;50.742;6.432;2024-03-02T01:13:00;97244.72;;;7.30;65.64
50226;BME280;36113;50.742;6.432;2024-03-02T01:15:25;97278.78;;;7.55;65.74
50226;BME280;36113;50.742;6.432;2024-03-02T01:17:50;97280.38;;;7.56;65.33
50226;BME280;36113;50.742;6.432;2024-03-02T01:20:16;97274.97;;;7.56;65.65
50226;BME280;36113;50.742;6.432;2024-03-02T01:22:41;97257.78;;;7.47;65.03
50226;BME280;36113;50.742;6.432;2024-03-02T01:25:08;97240.00;;;7.41;65.38
50226;BME280;36113;50.742;6.432;2024-03-02T01:27:33;97240.81;;;7.41;65.57
50226;BME280;36113;50.742;6.432;2024-03-02T01:29:59;97248.91;;;7.41;65.34
50226;BME280;36113;50.742;6.432;2024-03-02T01:32:25;97269.56;;;7.56;65.29
50226;BME280;36113;50.742;6.432;2024-03-02T01:34:50;97272.53;;;7.55;64.96
50226;BME280;36113;50.742;6.432;2024-03-02T01:37:15;97278.19;;;7.58;65.29
50226;BME280;36113;50.742;6.432;2024-03-02T01:39:40;97279.81;;;7.59;65.14
50226;BME280;36113;50.742;6.432;2024-03-02T01:42:06;97281.34;;;7.65;65.24
50226;BME280;36113;50.742;6.432;2024-03-02T01:44:31;97283.25;;;7.65;64.98
50226;BME280;36113;50.742;6.432;2024-03-02T01:46:57;97278.34;;;7.67;65.25
50226;BME280;36113;50.742;6.432;2024-03-02T01:49:22;97266.78;;;7.61;65.37
50226;BME280;36113;50.742;6.432;2024-03-02T01:51:47;97282.66;;;7.68;65.33
50226;BME280;36113;50.742;6.432;2024-03-02T01:54:13;97229.53;;;7.34;65.41
50226;BME280;36113;50.742;6.432;2024-03-02T01:56:38;97259.03;;;7.55;65.42
50226;BME280;36113;50.742;6.432;2024-03-02T01:59:03;97271.34;;;7.66;65.84
50226;BME280;36113;50.742;6.432;2024-03-02T02:01:29;97270.25;;;7.67;66.00
50226;BME280;36113;50.742;6.432;2024-03-02T02:03:54;97274.25;;;7.70;65.80
50226;BME280;36113;50.742;6.432;2024-03-02T02:06:20;97249.16;;;7.45;65.46
50226;BME280;36113;50.742;6.432;2024-03-02T02:08:49;97258.50;;;7.53;65.59
50226;BME280;36113;50.742;6.432;2024-03-02T02:11:15;97279.47;;;7.66;65.80
50226;BME280;36113;50.742;6.432;2024-03-02T02:13:41;97289.44;;;7.65;65.92
50226;BME280;36113;50.742;6.432;2024-03-02T02:16:07;97271.97;;;7.58;66.47
50226;BME280;36113;50.742;6.432;2024-03-02T02:18:33;97269.84;;;7.55;66.38
50226;BME280;36113;50.742;6.432;2024-03-02T02:20:58;97280.53;;;7.65;66.74
50226;BME280;36113;50.742;6.432;2024-03-02T02:23:23;97269.78;;;7.60;67.70
50226;BME280;36113;50.742;6.432;2024-03-02T02:25:49;97269.78;;;7.60;67.57
50226;BME280;36113;50.742;6.432;2024-03-02T02:28:14;97226.78;;;7.39;67.90
50226;BME280;36113;50.742;6.432;2024-03-02T02:30:39;97281.16;;;7.57;67.98
50226;BME280;36113;50.742;6.432;2024-03-02T02:33:05;97277.09;;;7.59;68.30
50226;BME280;36113;50.742;6.432;2024-03-02T02:35:30;97277.91;;;7.60;68.14
50226;BME280;36113;50.742;6.432;2024-03-02T02:37:56;97276.59;;;7.57;68.12
50226;BME280;36113;50.742;6.432;2024-03-02T02:40:22;97246.03;;;7.33;68.27
50226;BME280;36113;50.742;6.432;2024-03-02T02:42:47;97246.28;;;7.36;68.22
50226;BME280;36113;50.742;6.432;2024-03-02T02:45:13;97275.25;;;7.55;68.34
50226;BME280;36113;50.742;6.432;2024-03-02T02:47:40;97273.66;;;7.54;68.42
50226;BME280;36113;50.742;6.432;2024-03-02T02:50:09;97271.75;;;7.54;68.38
50226;BME280;36113;50.742;6.432;2024-03-02T02:52:36;97275.56;;;7.53;68.42
50226;BME280;36113;50.742;6.432;2024-03-02T02:55:04;97232.06;;;7.25;67.98
50226;BME280;36113;50.742;6.432;2024-03-02T02:57:30;97260.25;;;7.43;67.86
50226;BME280;36113;50.742;6.432;2024-03-02T03:00:00;97278.09;;;7.44;68.05
50226;BME280;36113;50.742;6.432;2024-03-02T03:02:27;97275.44;;;7.39;68.36
50226;BME280;36113;50.742;6.432;2024-03-02T03:04:53;97275.75;;;7.38;68.29
50226;BME280;36113;50.742;6.432;2024-03-02T03:07:18;97249.97;;;7.21;68.70
50226;BME280;36113;50.742;6.432;2024-03-02T03:09:43;97267.72;;;7.28;68.48
50226;BME280;36113;50.742;6.432;2024-03-02T03:12:09;97283.84;;;7.38;68.52
50226;BME280;36113;50.742;6.432;2024-03-02T03:14:34;97269.28;;;7.34;69.00
50226;BME280;36113;50.742;6.432;2024-03-02T03:16:59;97273.59;;;7.35;69.32
50226;BME280;36113;50.742;6.432;2024-03-02T03:19:25;97266.88;;;7.32;69.10
50226;BME280;36113;50.742;6.432;2024-03-02T03:21:50;97228.31;;;7.02;69.86
50226;BME280;36113;50.742;6.432;2024-03-02T03:24:15;97248.72;;;7.14;69.99
50226;BME280;36113;50.742;6.432;2024-03-02T03:26:41;97272.41;;;7.22;69.99
50226;BME280;36113;50.742;6.432;2024-03-02T03:29:06;97279.94;;;7.25;70.44
50226;BME280;36113;50.742;6.432;2024-03-02T03:31:31;97284.88;;;7.18;70.86
50226;BME280;36113;50.742;6.432;2024-03-02T03:33:56;97272.78;;;7.10;71.05
50226;BME280;36113;50.742;6.432;2024-03-02T03:36:22;97280.03;;;7.15;71.23
50226;BME280;36113;50.742;6.432;2024-03-02T03:38:48;97286.53;;;7.14;71.47
50226;BME280;36113;50.742;6.432;2024-03-02T03:41:13;97279.13;;;7.00;72.11
50226;BME280;36113;50.742;6.432;2024-03-02T03:43:38;97284.50;;;7.00;72.51
50226;BME280;36113;50.742;6.432;2024-03-02T03:46:04;97238.94;;;6.65;72.72
50226;BME280;36113;50.742;6.432;2024-03-02T03:48:29;97266.84;;;6.84;73.20
50226;BME280;36113;50.742;6.432;2024-03-02T03:50:56;97261.50;;;6.79;73.07
50226;BME280;36113;50.742;6.432;2024-03-02T03:53:21;97282.66;;;6.96;73.07
50226;BME280;36113;50.742;6.432;2024-03-02T03:55:47;97259.63;;;6.74;73.84
50226;BME280;36113;50.742;6.432;2024-03-02T03:58:14;97232.56;;;6.55;73.92
50226;BME280;36113;50.742;6.432;2024-03-02T04:00:41;97275.19;;;6.88;74.67
50226;BME280;36113;50.742;6.432;2024-03-02T04:03:06;97281.97;;;6.85;74.84
50226;BME280;36113;50.742;6.432;2024-03-02T04:05:32;97262.16;;;6.66;75.42
50226;BME280;36113;50.742;6.432;2024-03-02T04:07:57;97258.94;;;6.63;75.24
50226;BME280;36113;50.742;6.432;2024-03-02T04:10:22;97274.25;;;6.73;75.79
50226;BME280;36113;50.742;6.432;2024-03-02T04:12:49;97281.50;;;6.78;75.66
50226;BME280;36113;50.742;6.432;2024-03-02T04:15:15;97273.41;;;6.78;75.94
50226;BME280;36113;50.742;6.432;2024-03-02T04:17:41;97277.47;;;6.75;76.08
50226;BME280;36113;50.742;6.432;2024-03-02T04:20:07;97261.28;;;6.70;76.05
50226;BME280;36113;50.742;6.432;2024-03-02T04:22:33;97267.03;;;6.63;76.15
50226;BME280;36113;50.742;6.432;2024-03-02T04:24:59;97264.91;;;6.60;76.13
50226;BME280;36113;50.742;6.432;2024-03-02T04:27:24;97272.16;;;6.65;76.05
50226;BME280;36113;50.742;6.432;2024-03-02T04:29:49;97267.03;;;6.63;75.89
50226;BME280;36113;50.742;6.432;2024-03-02T04:32:15;97263.84;;;6.56;76.23
50226;BME280;36113;50.742;6.432;2024-03-02T04:34:40;97270.34;;;6.55;75.90
50226;BME280;36113;50.742;6.432;2024-03-02T04:37:05;97250.22;;;6.42;76.12
50226;BME280;36113;50.742;6.432;2024-03-02T04:39:31;97280.06;;;6.56;75.99
50226;BME280;36113;50.742;6.432;2024-03-02T04:41:56;97279.25;;;6.56;75.93
50226;BME280;36113;50.742;6.432;2024-03-02T04:44:22;97263.41;;;6.44;76.40
50226;BME280;36113;50.742;6.432;2024-03-02T04:46:47;97279.53;;;6.54;76.08
50226;BME280;36113;50.742;6.432;2024-03-02T04:49:13;97276.03;;;6.54;76.22
50226;BME280;36113;50.742;6.432;2024-03-02T04:51:38;97282.75;;;6.56;75.83
50226;BME280;36113;50.742;6.432;2024-03-02T04:54:03;97251.63;;;6.35;76.04
50226;BME280;36113;50.742;6.432;2024-03-02T04:56:29;97229.63;;;6.17;76.27
50226;BME280;36113;50.742;6.432;2024-03-02T04:58:57;97243.56;;;6.30;76.53
50226;BME280;36113;50.742;6.432;2024-03-02T05:01:22;97288.47;;;6.50;76.28
50226;BME280;36113;50.742;6.432;2024-03-02T05:03:48;97243.31;;;6.26;76.60
50226;BME280;36113;50.742;6.432;2024-03-02T05:06:13;97256.00;;;6.26;76.64
50226;BME280;36113;50.742;6.432;2024-03-02T05:08:38;97270.81;;;6.28;76.80
50226;BME280;36113;50.742;6.432;2024-03-02T05:11:03;97274.78;;;6.41;77.06
50226;BME280;36113;50.742;6.432;2024-03-02T05:13:47;97258.75;;;6.20;77.09
50226;BME280;36113;50.742;6.432;2024-03-02T05:16:13;97255.25;;;6.20;77.23
50226;BME280;36113;50.742;6.432;2024-03-02T05:18:38;97264.38;;;6.24;77.51
50226;BME280;36113;50.742;6.432;2024-03-02T05:21:03;97263.53;;;6.29;77.25
50226;BME280;36113;50.742;6.432;2024-03-02T05:23:29;97288.28;;;6.41;77.58
50226;BME280;36113;50.742;6.432;2024-03-02T05:25:54;97282.63;;;6.37;77.25
50226;BME280;36113;50.742;6.432;2024-03-02T05:28:19;97286.69;;;6.35;77.27
50226;BME280;36113;50.742;6.432;2024-03-02T05:30:45;97294.25;;;6.38;77.26
50226;BME280;36113;50.742;6.432;2024-03-02T05:33:10;97288.59;;;6.34;77.75
50226;BME280;36113;50.742;6.432;2024-03-02T05:35:35;97264.47;;;6.09;78.29
50226;BME280;36113;50.742;6.432;2024-03-02T05:38:00;97301.31;;;6.29;78.63
50226;BME280;36113;50.742;6.432;2024-03-02T05:40:26;97261.81;;;6.04;78.91
50226;BME280;36113;50.742;6.432;2024-03-02T05:42:51;97283.88;;;6.11;79.81
50226;BME280;36113;50.742;6.432;2024-03-02T05:45:16;97294.44;;;6.07;79.89
50226;BME280;36113;50.742;6.432;2024-03-02T05:47:42;97307.31;;;6.15;80.03
50226;BME280;36113;50.742;6.432;2024-03-02T05:50:07;97299.06;;;6.07;80.01
50226;BME280;36113;50.742;6.432;2024-03-02T05:52:32;97310.88;;;6.11;80.12
50226;BME280;36113;50.742;6.432;2024-03-02T05:54:58;97327.38;;;6.04;80.60
50226;BME280;36113;50.742;6.432;2024-03-02T05:57:24;97327.13;;;6.00;80.77
50226;BME280;36113;50.742;6.432;2024-03-02T06:00:08;97333.06;;;6.03;80.83
50226;BME280;36113;50.742;6.432;2024-03-02T06:02:33;97326.03;;;6.07;80.27
50226;BME280;36113;50.742;6.432;2024-03-02T06:05:00;97331.13;;;6.08;80.16
50226;BME280;36113;50.742;6.432;2024-03-02T06:07:25;97292.34;;;5.89;79.81
50226;BME280;36113;50.742;6.432;2024-03-02T06:09:51;97318.75;;;6.02;79.87
50226;BME280;36113;50.742;6.432;2024-03-02T06:12:17;97320.38;;;6.03;79.89
50226;BME280;36113;50.742;6.432;2024-03-02T06:14:43;97327.38;;;6.04;80.03
50226;BME280;36113;50.742;6.432;2024-03-02T06:17:08;97332.22;;;6.02;80.15
50226;BME280;36113;50.742;6.432;2024-03-02T06:19:33;97317.72;;;5.98;79.73
50226;BME280;36113;50.742;6.432;2024-03-02T06:21:59;97304.25;;;5.88;79.83
50226;BME280;36113;50.742;6.432;2024-03-02T06:24:24;97324.66;;;6.04;79.41
50226;BME280;36113;50.742;6.432;2024-03-02T06:26:51;97329.78;;;6.06;79.33
50226;BME280;36113;50.742;6.432;2024-03-02T06:29:17;97324.66;;;6.04;79.31
50226;BME280;36113;50.742;6.432;2024-03-02T06:31:42;97338.44;;;6.03;79.08
50226;BME280;36113;50.742;6.432;2024-03-02T06:34:07;97337.09;;;6.05;79.39
50226;BME280;36113;50.742;6.432;2024-03-02T06:36:33;97323.38;;;5.96;79.11
50226;BME280;36113;50.742;6.432;2024-03-02T06:38:59;97351.56;;;6.19;78.97
50226;BME280;36113;50.742;6.432;2024-03-02T06:41:24;97300.97;;;5.91;78.84
50226;BME280;36113;50.742;6.432;2024-03-02T06:43:49;97339.13;;;6.24;78.66
50226;BME280;36113;50.742;6.432;2024-03-02T06:46:15;97335.00;;;6.36;78.28
50226;BME280;36113;50.742;6.432;2024-03-02T06:48:40;97339.81;;;6.39;78.41
50226;BME280;36113;50.742;6.432;2024-03-02T06:51:05;97307.22;;;6.31;78.31
50226;BME280;36113;50.742;6.432;2024-03-02T06:53:31;97320.41;;;6.37;78.14
50226;BME280;36113;50.742;6.432;2024-03-02T06:55:58;97321.50;;;6.36;78.66
50226;BME280;36113;50.742;6.432;2024-03-02T06:58:23;97333.91;;;6.37;78.23
50226;BME280;36113;50.742;6.432;2024-03-02T07:00:49;97316.69;;;6.33;78.24
50226;BME280;36113;50.742;6.432;2024-03-02T07:03:14;97344.06;;;6.56;78.41
50226;BME280;36113;50.742;6.432;2024-03-02T07:05:39;97304.00;;;6.34;77.41
50226;BME280;36113;50.742;6.432;2024-03-02T07:08:05;97353.44;;;6.63;77.38
50226;BME280;36113;50.742;6.432;2024-03-02T07:10:31;97334.31;;;6.55;77.20
50226;BME280;36113;50.742;6.432;2024-03-02T07:12:56;97331.31;;;6.61;76.82
50226;BME280;36113;50.742;6.432;2024-03-02T07:15:21;97323.19;;;6.61;77.13
50226;BME280;36113;50.742;6.432;2024-03-02T07:18:03;97357.97;;;6.73;77.00
50226;BME280;36113;50.742;6.432;2024-03-02T07:20:28;97363.38;;;6.68;76.82
50226;BME280;36113;50.742;6.432;2024-03-02T07:22:53;97368.31;;;6.61;76.85
50226;BME280;36113;50.742;6.432;2024-03-02T07:25:18;97342.19;;;6.51;76.88
50226;BME280;36113;50.742;6.432;2024-03-02T07:27:44;97361.00;;;6.61;76.99
50226;BME280;36113;50.742;6.432;2024-03-02T07:30:09;97389.06;;;6.66;77.01
50226;BME280;36113;50.742;6.432;2024-03-02T07:32:36;97388.00;;;6.67;76.95
50226;BME280;36113;50.742;6.432;2024-03-02T07:35:01;97356.75;;;6.50;76.53
50226;BME280;36113;50.742;6.432;2024-03-02T07:37:28;97393.91;;;6.69;76.43
50226;BME280;36113;50.742;6.432;2024-03-02T07:39:53;97356.56;;;6.41;76.32
50226;BME280;36113;50.742;6.432;2024-03-02T07:42:19;97377.19;;;6.61;76.29
50226;BME280;36113;50.742;6.432;2024-03-02T07:44:44;97366.19;;;6.53;76.49
50226;BME280;36113;50.742;6.432;2024-03-02T07:47:10;97379.06;;;6.66;76.33
50226;BME280;36113;50.742;6.432;2024-03-02T07:49:36;97350.28;;;6.51;76.56
50226;BME280;36113;50.742;6.432;2024-03-02T07:52:01;97369.88;;;6.67;76.21
50226;BME280;36113;50.742;6.432;2024-03-02T07:54:26;97362.16;;;6.55;75.83
50226;BME280;36113;50.742;6.432;2024-03-02T07:56:52;97395.25;;;6.71;75.66
50226;BME280;36113;50.742;6.432;2024-03-02T07:59:17;97404.41;;;6.75;75.70
50226;BME280;36113;50.742;6.432;2024-03-02T08:01:43;97398.97;;;6.80;75.90
50226;BME280;36113;50.742;6.432;2024-03-02T08:04:08;97376.81;;;6.78;75.94
50226;BME280;36113;50.742;6.432;2024-03-02T08:06:34;97389.41;;;6.93;75.48
50226;BME280;36113;50.742;6.432;2024-03-02T08:09:00;97381.31;;;6.88;74.48
50226;BME280;36113;50.742;6.432;2024-03-02T08:11:26;97398.53;;;6.97;74.81
50226;BME280;36113;50.742;6.432;2024-03-02T08:13:53;97392.09;;;6.93;74.35
50226;BME280;36113;50.742;6.432;2024-03-02T08:16:20;97394.72;;;7.03;73.82
50226;BME280;36113;50.742;6.432;2024-03-02T08:18:47;97372.16;;;6.89;72.88
50226;BME280;36113;50.742;6.432;2024-03-02T08:21:13;97397.66;;;7.07;72.48
50226;BME280;36113;50.742;6.432;2024-03-02T08:23:39;97386.56;;;7.09;71.76
50226;BME280;36113;50.742;6.432;2024-03-02T08:26:06;97387.09;;;7.11;71.42
50226;BME280;36113;50.742;6.432;2024-03-02T08:28:31;97396.22;;;7.20;70.55
50226;BME280;36113;50.742;6.432;2024-03-02T08:30:57;97396.44;;;7.23;70.99
50226;BME280;36113;50.742;6.432;2024-03-02T08:33:22;97371.03;;;7.24;70.74
50226;BME280;36113;50.742;6.432;2024-03-02T08:35:48;97385.94;;;7.46;70.35
50226;BME280;36113;50.742;6.432;2024-03-02T08:38:13;97364.38;;;7.41;70.39
50226;BME280;36113;50.742;6.432;2024-03-02T08:40:38;97388.81;;;7.79;71.16
50226;BME280;36113;50.742;6.432;2024-03-02T08:43:04;97399.97;;;7.77;68.66
50226;BME280;36113;50.742;6.432;2024-03-02T08:45:29;97391.41;;;7.65;67.11
50226;BME280;36113;50.742;6.432;2024-03-02T08:47:54;97390.38;;;7.61;67.99
50226;BME280;36113;50.742;6.432;2024-03-02T08:50:20;97373.69;;;7.54;66.64
50226;BME280;36113;50.742;6.432;2024-03-02T08:52:45;97365.06;;;7.52;65.30
50226;BME280;36113;50.742;6.432;2024-03-02T08:55:10;97405.47;;;7.67;65.81
50226;BME280;36113;50.742;6.432;2024-03-02T08:57:36;97404.31;;;7.73;66.48
50226;BME280;36113;50.742;6.432;2024-03-02T09:00:02;97330.16;;;7.31;65.38
50226;BME280;36113;50.742;6.432;2024-03-02T09:02:28;97389.25;;;7.67;65.57
50226;BME280;36113;50.742;6.432;2024-03-02T09:04:53;97364.38;;;7.65;65.63
50226;BME280;36113;50.742;6.432;2024-03-02T09:07:18;97389.66;;;7.79;66.25
50226;BME280;36113;50.742;6.432;2024-03-02T09:09:44;97380.19;;;7.77;66.16
50226;BME280;36113;50.742;6.432;2024-03-02T09:12:09;97392.00;;;7.86;65.59
50226;BME280;36113;50.742;6.432;2024-03-02T09:14:36;97394.03;;;7.99;65.57
50226;BME280;36113;50.742;6.432;2024-03-02T09:17:02;97391.91;;;8.15;65.11
50226;BME280;36113;50.742;6.432;2024-03-02T09:19:27;97391.13;;;8.34;65.28
50226;BME280;36113;50.742;6.432;2024-03-02T09:21:53;97379.88;;;8.45;64.87
50226;BME280;36113;50.742;6.432;2024-03-02T09:24:20;97393.88;;;8.72;64.06
50226;BME280;36113;50.742;6.432;2024-03-02T09:26:45;97383.81;;;8.72;63.88
50226;BME280;36113;50.742;6.432;2024-03-02T09:29:11;97399.84;;;8.87;63.75
50226;BME280;36113;50.742;6.432;2024-03-02T09:31:40;97401.78;;;8.68;63.24
50226;BME280;36113;50.742;6.432;2024-03-02T09:34:06;97390.59;;;8.56;63.80
50226;BME280;36113;50.742;6.432;2024-03-02T09:36:32;97396.44;;;8.44;63.13
50226;BME280;36113;50.742;6.432;2024-03-02T09:38:57;97392.53;;;8.50;64.36
50226;BME280;36113;50.742;6.432;2024-03-02T09:41:22;97395.06;;;8.46;63.57
50226;BME280;36113;50.742;6.432;2024-03-02T09:43:48;97363.81;;;8.30;63.81
50226;BME280;36113;50.742;6.432;2024-03-02T09:46:15;97390.50;;;8.42;63.86
50226;BME280;36113;50.742;6.432;2024-03-02T09:48:40;97393.75;;;8.39;63.82
50226;BME280;36113;50.742;6.432;2024-03-02T09:51:05;97357.78;;;8.19;64.15
50226;BME280;36113;50.742;6.432;2024-03-02T09:53:32;97373.06;;;8.29;63.70
50226;BME280;36113;50.742;6.432;2024-03-02T09:55:59;97366.56;;;8.49;63.62
50226;BME280;36113;50.742;6.432;2024-03-02T09:58:25;97383.06;;;8.85;63.42
50226;BME280;36113;50.742;6.432;2024-03-02T10:00:50;97383.44;;;8.98;62.47
50226;BME280;36113;50.742;6.432;2024-03-02T10:03:18;97383.31;;;9.22;62.44
50226;BME280;36113;50.742;6.432;2024-03-02T10:05:43;97361.22;;;9.28;61.82
50226;BME280;36113;50.742;6.432;2024-03-02T10:08:09;97368.06;;;9.40;61.32
50226;BME280;36113;50.742;6.432;2024-03-02T10:13:04;97387.50;;;9.14;61.48
50226;BME280;36113;50.742;6.432;2024-03-02T10:15:30;97385.50;;;9.20;61.05
50226;BME280;36113;50.742;6.432;2024-03-02T10:17:55;97390.25;;;9.28;60.95
50226;BME280;36113;50.742;6.432;2024-03-02T10:20:22;97346.03;;;9.27;60.98
50226;BME280;36113;50.742;6.432;2024-03-02T10:22:48;97335.03;;;9.38;60.01
50226;BME280;36113;50.742;6.432;2024-03-02T10:25:30;97353.16;;;9.70;60.03
50226;BME280;36113;50.742;6.432;2024-03-02T10:28:00;97356.53;;;9.89;59.72
50226;BME280;36113;50.742;6.432;2024-03-02T10:30:26;97350.88;;;10.13;59.50
50226;BME280;36113;50.742;6.432;2024-03-02T10:32:55;97350.16;;;10.35;59.25
50226;BME280;36113;50.742;6.432;2024-03-02T10:35:23;97345.19;;;10.51;58.62
50226;BME280;36113;50.742;6.432;2024-03-02T10:37:52;97357.91;;;10.65;58.25
50226;BME280;36113;50.742;6.432;2024-03-02T10:40:21;97355.19;;;10.65;57.66
50226;BME280;36113;50.742;6.432;2024-03-02T10:42:46;97351.25;;;10.71;57.96
50226;BME280;36113;50.742;6.432;2024-03-02T10:45:15;97322.22;;;10.57;56.83
50226;BME280;36113;50.742;6.432;2024-03-02T10:47:41;97349.59;;;10.84;56.59
50226;BME280;36113;50.742;6.432;2024-03-02T10:50:07;97336.38;;;10.68;56.29
50226;BME280;36113;50.742;6.432;2024-03-02T10:52:39;97343.88;;;10.85;56.77
50226;BME280;36113;50.742;6.432;2024-03-02T10:55:06;97340.22;;;10.90;55.57
50226;BME280;36113;50.742;6.432;2024-03-02T10:57:42;97338.50;;;10.94;56.25
50226;BME280;36113;50.742;6.432;2024-03-02T11:00:12;97333.53;;;10.96;56.13
50226;BME280;36113;50.742;6.432;2024-03-02T11:02:50;97350.44;;;11.15;56.12
50226;BME280;36113;50.742;6.432;2024-03-02T11:05:23;97346.13;;;11.14;55.80
50226;BME280;36113;50.742;6.432;2024-03-02T11:07:52;97347.59;;;11.21;55.91
50226;BME280;36113;50.742;6.432;2024-03-02T11:10:19;97354.50;;;11.27;56.01
50226;BME280;36113;50.742;6.432;2024-03-02T11:13:02;97350.97;;;11.26;55.59
50226;BME280;36113;50.742;6.432;2024-03-02T11:15:27;97357.59;;;11.34;55.48
50226;BME280;36113;50.742;6.432;2024-03-02T11:17:53;97357.94;;;11.41;54.32
50226;BME280;36113;50.742;6.432;2024-03-02T11:20:19;97363.50;;;11.27;54.23
50226;BME280;36113;50.742;6.432;2024-03-02T11:22:45;97366.00;;;11.24;54.30
50226;BME280;36113;50.742;6.432;2024-03-02T11:25:27;97357.09;;;11.32;54.23
50226;BME280;36113;50.742;6.432;2024-03-02T11:35:51;97339.47;;;11.60;54.49
50226;BME280;36113;50.742;6.432;2024-03-02T11:38:17;97347.75;;;11.55;54.06
50226;BME280;36113;50.742;6.432;2024-03-02T11:40:43;97347.41;;;11.48;54.09
50226;BME280;36113;50.742;6.432;2024-03-02T11:43:08;97351.06;;;11.44;54.55
50226;BME280;36113;50.742;6.432;2024-03-02T11:45:35;97337.78;;;11.42;54.29
50226;BME280;36113;50.742;6.432;2024-03-02T11:48:05;97296.41;;;11.23;53.85
50226;BME280;36113;50.742;6.432;2024-03-02T11:50:47;97323.75;;;11.57;54.56
50226;BME280;36113;50.742;6.432;2024-03-02T11:53:14;97291.94;;;11.75;54.33
50226;BME280;36113;50.742;6.432;2024-03-02T11:55:40;97290.69;;;11.81;53.35
50226;BME280;36113;50.742;6.432;2024-03-02T11:58:07;97282.41;;;11.87;53.61
50226;BME280;36113;50.742;6.432;2024-03-02T12:00:32;97265.44;;;11.90;54.17
50226;BME280;36113;50.742;6.432;2024-03-02T12:03:08;97237.31;;;11.54;53.05
50226;BME280;36113;50.742;6.432;2024-03-02T12:05:35;97294.09;;;11.87;53.77
50226;BME280;36113;50.742;6.432;2024-03-02T12:08:01;97291.34;;;11.87;53.93
50226;BME280;36113;50.742;6.432;2024-03-02T12:10:28;97292.94;;;11.79;53.47
50226;BME280;36113;50.742;6.432;2024-03-02T12:12:57;97285.88;;;11.70;53.83
50226;BME280;36113;50.742;6.432;2024-03-02T12:15:25;97269.72;;;11.73;54.66
50226;BME280;36113;50.742;6.432;2024-03-02T12:17:53;97288.69;;;12.05;54.44
50226;BME280;36113;50.742;6.432;2024-03-02T12:20:19;97284.53;;;12.07;53.46
50226;BME280;36113;50.742;6.432;2024-03-02T12:22:45;97290.31;;;12.14;54.20
50226;BME280;36113;50.742;6.432;2024-03-02T12:25:11;97290.00;;;12.25;54.32
50226;BME280;36113;50.742;6.432;2024-03-02T12:27:36;97293.53;;;12.25;54.32
50226;BME280;36113;50.742;6.432;2024-03-02T12:30:03;97287.75;;;12.18;54.56
50226;BME280;36113;50.742;6.432;2024-03-02T12:32:29;97276.19;;;12.04;54.88
50226;BME280;36113;50.742;6.432;2024-03-02T12:34:55;97286.31;;;12.20;54.81
50226;BME280;36113;50.742;6.432;2024-03-02T12:37:20;97284.69;;;12.19;54.42
50226;BME280;36113;50.742;6.432;2024-03-02T12:39:46;97272.50;;;12.17;54.15
50226;BME280;36113;50.742;6.432;2024-03-02T12:42:12;97263.72;;;12.20;54.36
50226;BME280;36113;50.742;6.432;2024-03-02T12:44:37;97276.22;;;12.47;54.24
50226;BME280;36113;50.742;6.432;2024-03-02T12:47:03;97247.22;;;12.42;53.89
50226;BME280;36113;50.742;6.432;2024-03-02T12:49:29;97274.94;;;12.62;54.19
50226;BME280;36113;50.742;6.432;2024-03-02T12:51:55;97270.75;;;12.56;54.10
50226;BME280;36113;50.742;6.432;2024-03-02T12:54:22;97277.97;;;12.69;54.22
50226;BME280;36113;50.742;6.432;2024-03-02T12:56:48;97262.88;;;12.72;53.83
50226;BME280;36113;50.742;6.432;2024-03-02T12:59:21;97257.63;;;12.58;53.91
50226;BME280;36113;50.742;6.432;2024-03-02T13:01:52;97250.22;;;12.58;54.59
50226;BME280;36113;50.742;6.432;2024-03-02T13:04:24;97275.38;;;12.81;54.15
50226;BME280;36113;50.742;6.432;2024-03-02T13:06:51;97276.34;;;12.77;53.75
50226;BME280;36113;50.742;6.432;2024-03-02T13:09:17;97247.69;;;12.53;53.58
50226;BME280;36113;50.742;6.432;2024-03-02T13:11:42;97247.81;;;12.57;53.53
50226;BME280;36113;50.742;6.432;2024-03-02T13:14:10;97258.72;;;12.66;53.43
50226;BME280;36113;50.742;6.432;2024-03-02T13:16:39;97255.97;;;12.83;53.62
50226;BME280;36113;50.742;6.432;2024-03-02T13:19:11;97254.97;;;12.88;53.24